createdAt,value
2023-02-06T00:01:30.880Z,88.46
2023-02-06T00:03:57.798Z,88.62
2023-02-06T00:06:24.805Z,88.50
2023-02-06T00:08:51.836Z,88.28
2023-02-06T00:11:20.719Z,88.29
2023-02-06T00:13:48.371Z,88.28
2023-02-06T00:16:27.964Z,88.14
2023-02-06T00:18:56.667Z,88.17
2023-02-06T00:21:25.984Z,88.27
2023-02-06T00:23:56.316Z,88.18
2023-02-06T00:26:24.893Z,88.25
2023-02-06T00:28:52.439Z,88.20
2023-02-06T00:31:19.490Z,88.35
2023-02-06T00:33:47.265Z,88.58
2023-02-06T00:36:14.316Z,88.36
2023-02-06T00:38:41.222Z,88.13
2023-02-06T00:41:08.130Z,88.29
2023-02-06T00:43:35.148Z,88.21
2023-02-06T00:46:02.350Z,88.18
2023-02-06T00:48:29.341Z,88.24
2023-02-06T00:50:57.067Z,88.35
2023-02-06T00:53:23.995Z,88.33
2023-02-06T00:55:52.159Z,88.52
2023-02-06T00:58:21.607Z,88.33
2023-02-06T01:00:48.516Z,88.90
2023-02-06T01:03:15.431Z,88.65
2023-02-06T01:05:42.598Z,88.71
2023-02-06T01:08:09.830Z,88.95
2023-02-06T01:10:36.732Z,88.62
2023-02-06T01:13:03.657Z,88.67
2023-02-06T01:15:30.687Z,88.79
2023-02-06T01:17:57.633Z,88.68
2023-02-06T01:20:24.723Z,88.62
2023-02-06T01:22:51.830Z,88.78
2023-02-06T01:25:18.799Z,88.88
2023-02-06T01:27:45.877Z,88.67
2023-02-06T01:30:14.222Z,88.56
2023-02-06T01:32:41.965Z,88.39
2023-02-06T01:35:11.300Z,88.53
2023-02-06T01:37:39.582Z,88.48
2023-02-06T01:40:12.989Z,88.75
2023-02-06T01:42:40.018Z,88.92
2023-02-06T01:45:26.122Z,88.68
2023-02-06T01:47:59.667Z,88.62
2023-02-06T01:50:28.282Z,89.01
2023-02-06T01:52:55.532Z,89.05
2023-02-06T01:55:23.423Z,88.78
2023-02-06T01:57:52.191Z,88.63
2023-02-06T02:00:20.674Z,88.95
2023-02-06T02:02:49.097Z,88.84
2023-02-06T02:05:18.319Z,88.98
2023-02-06T02:07:53.737Z,88.55
2023-02-06T02:10:20.799Z,88.68
2023-02-06T02:12:48.358Z,88.60
2023-02-06T02:15:16.523Z,88.87
2023-02-06T02:18:21.082Z,88.91
2023-02-06T02:21:14.587Z,88.56
2023-02-06T02:24:09.424Z,88.64
2023-02-06T02:27:10.185Z,88.81
2023-02-06T02:30:16.591Z,88.16
2023-02-06T02:33:15.397Z,88.33
2023-02-06T02:36:29.735Z,88.38
2023-02-06T02:39:26.528Z,88.50
2023-02-06T02:41:59.886Z,88.83
2023-02-06T02:45:12.558Z,88.33
2023-02-06T02:48:15.179Z,88.26
2023-02-06T02:50:43.029Z,88.81
2023-02-06T02:53:12.806Z,88.74
2023-02-06T02:55:39.733Z,88.70
2023-02-06T02:58:15.012Z,88.58
2023-02-06T03:00:49.092Z,88.70
2023-02-06T03:03:22.724Z,88.91
2023-02-06T03:06:25.458Z,88.58
2023-02-06T03:09:03.739Z,88.53
2023-02-06T03:11:31.908Z,88.57
2023-02-06T03:14:24.836Z,88.52
2023-02-06T03:17:00.580Z,88.78
2023-02-06T03:19:35.267Z,88.61
2023-02-06T03:22:04.286Z,88.79
2023-02-06T03:24:36.616Z,88.70
2023-02-06T03:27:11.073Z,88.79
2023-02-06T03:29:41.531Z,88.71
2023-02-06T03:32:31.704Z,88.39
2023-02-06T03:35:16.073Z,88.46
2023-02-06T03:37:43.211Z,88.71
2023-02-06T03:40:11.236Z,88.39
2023-02-06T03:42:44.056Z,88.41
2023-02-06T03:45:43.474Z,88.35
2023-02-06T03:48:24.972Z,88.17
2023-02-06T03:50:54.254Z,88.52
2023-02-06T03:53:23.733Z,88.54
2023-02-06T03:55:58.772Z,88.51
2023-02-06T03:58:25.962Z,88.52
2023-02-06T04:00:53.741Z,88.45
2023-02-06T04:03:21.456Z,88.56
2023-02-06T04:05:48.592Z,88.53
2023-02-06T04:08:15.498Z,88.52
2023-02-06T04:10:42.428Z,88.48
2023-02-06T04:13:09.324Z,88.36
2023-02-06T04:15:36.550Z,88.24
2023-02-06T04:18:05.192Z,88.31
2023-02-06T04:20:33.064Z,88.60
2023-02-06T04:23:00.013Z,88.26
2023-02-06T04:25:26.956Z,88.46
2023-02-06T04:27:53.979Z,88.48
2023-02-06T04:30:21.117Z,88.58
2023-02-06T04:32:48.061Z,88.44
2023-02-06T04:35:14.973Z,88.42
2023-02-06T04:37:41.912Z,88.52
2023-02-06T04:40:09.581Z,88.37
2023-02-06T04:42:36.494Z,88.59
2023-02-06T04:45:03.814Z,88.58
2023-02-06T04:47:30.715Z,88.35
2023-02-06T04:49:57.614Z,88.33
2023-02-06T04:52:24.581Z,88.40
2023-02-06T04:54:51.499Z,88.42
2023-02-06T04:57:18.444Z,88.55
2023-02-06T04:59:45.350Z,88.41
2023-02-06T05:02:12.300Z,88.40
2023-02-06T05:04:39.286Z,88.33
2023-02-06T05:07:06.659Z,88.20
2023-02-06T05:09:33.555Z,88.31
2023-02-06T05:12:00.643Z,88.25
2023-02-06T05:14:27.691Z,88.11
2023-02-06T05:16:54.634Z,88.25
2023-02-06T05:19:21.618Z,88.20
2023-02-06T05:21:48.642Z,88.20
2023-02-06T05:24:15.733Z,88.10
2023-02-06T05:26:42.675Z,88.23
2023-02-06T05:29:09.636Z,88.60
2023-02-06T05:31:36.751Z,88.25
2023-02-06T05:34:03.894Z,88.38
2023-02-06T05:36:30.795Z,88.42
2023-02-06T05:38:57.706Z,88.49
2023-02-06T05:41:24.797Z,88.53
2023-02-06T05:43:51.832Z,88.43
2023-02-06T05:46:19.337Z,88.40
2023-02-06T05:48:46.244Z,88.45
2023-02-06T05:51:13.454Z,88.18
2023-02-06T05:53:40.383Z,88.37
2023-02-06T05:56:07.386Z,88.50
2023-02-06T05:58:34.341Z,88.55
2023-02-06T06:01:01.387Z,88.61
2023-02-06T06:03:28.321Z,88.49
2023-02-06T06:05:55.751Z,88.54
2023-02-06T06:08:22.749Z,88.46
2023-02-06T06:10:51.747Z,88.45
2023-02-06T06:13:18.865Z,88.32
2023-02-06T06:15:45.863Z,88.48
2023-02-06T06:18:12.911Z,88.46
2023-02-06T06:20:39.837Z,88.48
2023-02-06T06:23:06.732Z,88.44
2023-02-06T06:25:35.504Z,88.40
2023-02-06T06:28:03.109Z,88.32
2023-02-06T06:30:30.519Z,88.35
2023-02-06T06:32:57.606Z,88.50
2023-02-06T06:35:25.936Z,88.57
2023-02-06T06:37:52.857Z,88.27
2023-02-06T06:40:20.098Z,88.41
2023-02-06T06:42:47.053Z,88.44
2023-02-06T06:45:14.234Z,88.53
2023-02-06T06:47:41.250Z,88.56
2023-02-06T06:50:08.762Z,88.47
2023-02-06T06:52:35.846Z,88.55
2023-02-06T06:55:03.639Z,88.74
2023-02-06T06:57:32.421Z,88.65
2023-02-06T06:59:59.429Z,88.60
2023-02-06T07:02:28.384Z,88.87
2023-02-06T07:04:55.766Z,88.62
2023-02-06T07:07:22.806Z,88.66
2023-02-06T07:09:49.766Z,88.61
2023-02-06T07:12:16.870Z,88.97
2023-02-06T07:14:43.831Z,88.84
2023-02-06T07:17:10.786Z,89.05
2023-02-06T07:19:37.726Z,88.81
2023-02-06T07:22:05.133Z,88.91
2023-02-06T07:24:32.037Z,88.88
2023-02-06T07:26:58.927Z,88.97
2023-02-06T07:29:25.951Z,89.09
2023-02-06T07:31:52.884Z,89.08
2023-02-06T07:34:19.873Z,89.14
2023-02-06T07:36:47.187Z,89.01
2023-02-06T07:39:14.343Z,89.12
2023-02-06T07:41:41.557Z,89.09
2023-02-06T07:44:10.728Z,89.18
2023-02-06T07:46:37.707Z,89.39
2023-02-06T07:49:04.604Z,89.42
2023-02-06T07:51:31.509Z,89.38
2023-02-06T07:53:58.517Z,89.56
2023-02-06T07:56:25.594Z,89.38
2023-02-06T07:58:54.590Z,89.40
2023-02-06T08:01:23.450Z,89.39
2023-02-06T08:03:52.688Z,89.58
2023-02-06T08:06:24.189Z,89.49
2023-02-06T08:08:54.176Z,89.56
2023-02-06T08:11:24.499Z,89.83
2023-02-06T08:13:51.785Z,89.90
2023-02-06T08:16:22.321Z,89.78
2023-02-06T08:18:49.586Z,90.13
2023-02-06T08:21:21.078Z,89.90
2023-02-06T08:23:54.189Z,90.19
2023-02-06T08:26:21.932Z,90.09
2023-02-06T08:28:51.037Z,90.13
2023-02-06T08:31:19.552Z,90.46
2023-02-06T08:33:48.340Z,90.46
2023-02-06T08:36:17.357Z,90.44
2023-02-06T08:38:44.582Z,90.49
2023-02-06T08:41:31.201Z,90.59
2023-02-06T08:44:02.039Z,90.67
2023-02-06T08:46:32.071Z,90.76
2023-02-06T08:49:11.060Z,90.92
2023-02-06T08:51:38.171Z,90.70
2023-02-06T08:54:11.252Z,90.66
2023-02-06T08:56:38.925Z,90.89
2023-02-06T08:59:07.318Z,90.84
2023-02-06T09:01:36.573Z,90.76
2023-02-06T09:04:11.639Z,91.04
2023-02-06T09:06:42.124Z,91.02
2023-02-06T09:09:10.850Z,91.07
2023-02-06T09:11:38.564Z,91.17
2023-02-06T09:14:07.284Z,91.43
2023-02-06T09:16:35.330Z,91.52
2023-02-06T09:19:03.135Z,91.33
2023-02-06T09:21:33.464Z,91.64
2023-02-06T09:24:07.485Z,91.38
2023-02-06T09:26:44.783Z,91.78
2023-02-06T09:29:20.618Z,91.51
2023-02-06T09:31:47.749Z,92.07
2023-02-06T09:34:14.852Z,92.00
2023-02-06T09:36:41.851Z,92.00
2023-02-06T09:39:09.573Z,92.11
2023-02-06T09:41:52.051Z,92.10
2023-02-06T09:44:32.248Z,92.11
2023-02-06T09:47:32.094Z,92.14
2023-02-06T09:50:16.044Z,92.39
2023-02-06T09:53:34.276Z,92.13
2023-02-06T09:56:17.272Z,92.01
2023-02-06T09:59:03.019Z,91.77
2023-02-06T10:01:55.362Z,92.04
2023-02-06T10:04:42.295Z,92.18
2023-02-06T10:07:52.548Z,92.12
2023-02-06T10:10:32.104Z,92.36
2023-02-06T10:13:22.495Z,92.33
2023-02-06T10:16:00.246Z,92.38
2023-02-06T10:18:37.672Z,92.28
2023-02-06T10:21:28.574Z,92.33
2023-02-06T10:24:13.413Z,92.48
2023-02-06T10:26:41.406Z,92.53
2023-02-06T10:29:23.583Z,92.65
2023-02-06T10:32:06.038Z,92.55
2023-02-06T10:34:47.073Z,92.65
2023-02-06T10:37:47.762Z,92.83
2023-02-06T10:40:33.695Z,92.72
2023-02-06T10:43:30.732Z,92.96
2023-02-06T10:46:09.412Z,92.64
2023-02-06T10:49:23.859Z,92.98
2023-02-06T10:52:00.072Z,93.00
2023-02-06T10:54:42.900Z,93.04
2023-02-06T10:57:21.638Z,93.01
2023-02-06T10:59:53.552Z,93.00
2023-02-06T11:02:30.756Z,93.20
2023-02-06T11:05:08.275Z,93.33
2023-02-06T11:07:45.893Z,93.15
2023-02-06T11:10:17.403Z,92.90
2023-02-06T11:13:00.065Z,92.92
2023-02-06T11:15:52.132Z,93.15
2023-02-06T11:18:24.124Z,93.12
2023-02-06T11:20:52.536Z,93.07
2023-02-06T11:23:26.272Z,93.15
2023-02-06T11:26:18.824Z,93.15
2023-02-06T11:29:01.783Z,92.95
2023-02-06T11:31:46.264Z,92.93
2023-02-06T11:34:36.075Z,93.06
2023-02-06T11:37:32.133Z,93.00
2023-02-06T11:40:17.449Z,92.73
2023-02-06T11:42:46.908Z,93.01
2023-02-06T11:45:22.803Z,92.88
2023-02-06T11:47:49.747Z,93.26
2023-02-06T11:50:31.435Z,93.43
2023-02-06T11:53:20.046Z,93.53
2023-02-06T11:56:16.589Z,93.69
2023-02-06T11:58:44.832Z,93.70
2023-02-06T12:01:21.820Z,94.06
2023-02-06T12:03:58.675Z,94.12
2023-02-06T12:06:30.436Z,93.96
2023-02-06T12:09:01.074Z,94.25
2023-02-06T12:11:52.872Z,94.31
2023-02-06T12:14:37.008Z,94.58
2023-02-06T12:17:14.671Z,94.37
2023-02-06T12:19:52.163Z,94.42
2023-02-06T12:22:25.337Z,94.40
2023-02-06T12:24:56.336Z,94.08
2023-02-06T12:27:39.031Z,94.25
2023-02-06T12:30:45.571Z,94.20
2023-02-06T12:33:22.930Z,94.82
2023-02-06T12:36:03.048Z,95.32
2023-02-06T12:39:03.633Z,95.83
2023-02-06T12:41:55.167Z,95.85
2023-02-06T12:44:22.028Z,95.51
2023-02-06T12:47:05.182Z,95.82
2023-02-06T12:49:46.042Z,96.12
2023-02-06T12:52:33.837Z,96.85
2023-02-06T12:55:45.369Z,96.67
2023-02-06T12:58:42.017Z,96.94
2023-02-06T13:01:34.509Z,97.12
2023-02-06T13:04:17.558Z,97.52
2023-02-06T13:07:03.977Z,97.89
2023-02-06T13:09:48.344Z,98.60
2023-02-06T13:12:29.180Z,98.83
2023-02-06T13:15:00.282Z,97.90
2023-02-06T13:17:44.765Z,98.31
2023-02-06T13:20:18.496Z,97.64
2023-02-06T13:22:50.953Z,96.79
2023-02-06T13:25:29.909Z,97.05
2023-02-06T13:28:00.903Z,96.38
2023-02-06T13:30:30.768Z,97.66
2023-02-06T13:33:14.561Z,96.88
2023-02-06T13:36:15.672Z,97.21
2023-02-06T13:38:43.543Z,96.90
2023-02-06T13:41:16.057Z,96.77
2023-02-06T13:44:06.574Z,96.78
2023-02-06T13:47:11.594Z,96.81
2023-02-06T13:50:12.398Z,96.58
2023-02-06T13:53:20.263Z,96.55
2023-02-06T13:56:14.269Z,96.72
2023-02-06T13:58:54.047Z,96.97
2023-02-06T14:01:27.835Z,97.21
2023-02-06T14:03:55.869Z,97.31
2023-02-06T14:06:58.814Z,98.15
2023-02-06T14:10:07.631Z,98.04
2023-02-06T14:13:08.072Z,98.03
2023-02-06T14:16:11.987Z,97.61
2023-02-06T14:19:08.781Z,97.35
2023-02-06T14:22:02.504Z,96.86
2023-02-06T14:24:53.569Z,96.84
2023-02-06T14:27:36.872Z,97.16
2023-02-06T14:30:46.601Z,96.90
2023-02-06T14:33:41.245Z,96.52
2023-02-06T14:36:24.690Z,96.38
2023-02-06T14:39:43.454Z,96.34
2023-02-06T14:42:37.163Z,96.01
2023-02-06T14:45:29.315Z,96.02
2023-02-06T14:48:01.936Z,95.96
2023-02-06T14:50:37.584Z,96.45
2023-02-06T14:53:16.413Z,96.74
2023-02-06T14:55:46.920Z,96.67
2023-02-06T14:58:29.429Z,96.95
2023-02-06T15:01:22.155Z,96.88
2023-02-06T15:03:52.619Z,96.45
2023-02-06T15:06:34.350Z,96.26
2023-02-06T15:09:01.586Z,95.38
2023-02-06T15:11:32.596Z,95.49
2023-02-06T15:14:22.913Z,96.06
2023-02-06T15:16:51.522Z,95.25
2023-02-06T15:19:24.244Z,95.48
2023-02-06T15:22:12.675Z,95.53
2023-02-06T15:25:05.529Z,95.37
2023-02-06T15:27:37.143Z,95.01
2023-02-06T15:30:22.002Z,95.13
2023-02-06T15:32:52.594Z,95.01
2023-02-06T15:35:36.042Z,94.93
2023-02-06T15:38:11.253Z,94.72
2023-02-06T15:40:47.811Z,95.02
2023-02-06T15:43:21.912Z,94.45
2023-02-06T15:45:52.222Z,94.47
2023-02-06T15:48:50.635Z,94.89
2023-02-06T15:51:25.684Z,94.68
2023-02-06T15:54:19.247Z,94.25
2023-02-06T15:56:53.052Z,93.75
2023-02-06T15:59:25.248Z,93.92
2023-02-06T16:01:56.451Z,93.84
2023-02-06T16:04:35.395Z,93.75
2023-02-06T16:07:24.760Z,93.88
2023-02-06T16:09:58.599Z,93.41
2023-02-06T16:12:25.737Z,93.56
2023-02-06T16:14:59.443Z,93.55
2023-02-06T16:17:41.151Z,93.46
2023-02-06T16:20:42.749Z,93.16
2023-02-06T16:23:26.662Z,92.86
2023-02-06T16:26:25.445Z,92.99
2023-02-06T16:29:05.635Z,92.71
2023-02-06T16:31:40.688Z,92.92
2023-02-06T16:34:40.510Z,92.91
2023-02-06T16:37:17.384Z,92.36
2023-02-06T16:39:45.591Z,92.42
2023-02-06T16:42:23.708Z,92.26
2023-02-06T16:44:54.444Z,92.09
2023-02-06T16:47:22.329Z,92.08
2023-02-06T16:49:49.611Z,91.46
2023-02-06T16:52:30.022Z,91.45
2023-02-06T16:55:01.566Z,91.64
2023-02-06T16:57:35.077Z,91.46
2023-02-06T17:00:12.294Z,91.35
2023-02-06T17:02:39.275Z,91.15
2023-02-06T17:05:06.458Z,91.31
2023-02-06T17:07:34.940Z,90.95
2023-02-06T17:10:02.487Z,90.83
2023-02-06T17:12:29.789Z,91.00
2023-02-06T17:14:56.767Z,91.02
2023-02-06T17:17:23.967Z,90.87
2023-02-06T17:19:52.416Z,90.93
2023-02-06T17:22:19.551Z,90.78
2023-02-06T17:24:46.826Z,90.52
2023-02-06T17:27:21.264Z,90.43
2023-02-06T17:29:49.786Z,90.82
2023-02-06T17:32:21.916Z,90.50
2023-02-06T17:34:54.368Z,90.54
2023-02-06T17:37:21.950Z,90.37
2023-02-06T17:39:52.103Z,90.27
2023-02-06T17:42:22.155Z,90.41
2023-02-06T17:44:49.640Z,90.18
2023-02-06T17:47:16.835Z,90.15
2023-02-06T17:49:43.832Z,90.13
2023-02-06T17:52:10.776Z,90.32
2023-02-06T17:54:37.776Z,89.92
2023-02-06T17:57:04.687Z,89.96
2023-02-06T17:59:31.652Z,90.17
2023-02-06T18:01:59.369Z,90.14
2023-02-06T18:04:26.672Z,89.80
2023-02-06T18:06:53.643Z,89.83
2023-02-06T18:09:20.584Z,89.61
2023-02-06T18:11:47.493Z,89.74
2023-02-06T18:14:14.442Z,89.75
2023-02-06T18:16:42.842Z,89.70
2023-02-06T18:19:10.391Z,89.50
2023-02-06T18:21:37.352Z,89.56
2023-02-06T18:24:05.483Z,89.25
2023-02-06T18:26:32.655Z,89.25
2023-02-06T18:29:04.005Z,89.22
2023-02-06T18:31:35.131Z,89.05
2023-02-06T18:34:07.693Z,89.10
2023-02-06T18:36:38.186Z,88.88
2023-02-06T18:39:06.208Z,89.00
2023-02-06T18:41:51.631Z,89.11
2023-02-06T18:44:19.809Z,88.95
2023-02-06T18:46:46.838Z,88.89
2023-02-06T18:49:13.839Z,88.78
2023-02-06T18:51:40.788Z,89.01
2023-02-06T18:54:07.961Z,88.97
2023-02-06T18:56:35.205Z,89.11
2023-02-06T18:59:03.830Z,89.01
2023-02-06T19:01:31.997Z,89.06
2023-02-06T19:03:59.485Z,88.93
2023-02-06T19:06:35.080Z,89.04
2023-02-06T19:09:06.939Z,88.79
2023-02-06T19:11:35.840Z,88.68
2023-02-06T19:14:05.986Z,88.69
2023-02-06T19:16:34.163Z,88.79
2023-02-06T19:19:01.541Z,89.11
2023-02-06T19:21:28.542Z,88.79
2023-02-06T19:24:00.072Z,88.70
2023-02-06T19:26:28.358Z,88.90
2023-02-06T19:28:55.888Z,88.93
2023-02-06T19:31:25.992Z,88.83
2023-02-06T19:33:59.185Z,88.70
2023-02-06T19:36:28.322Z,88.75
2023-02-06T19:38:59.889Z,88.75
2023-02-06T19:41:30.446Z,88.73
2023-02-06T19:44:03.072Z,88.50
2023-02-06T19:46:30.162Z,88.65
2023-02-06T19:48:57.453Z,88.60
2023-02-06T19:51:34.406Z,88.37
2023-02-06T19:54:01.523Z,88.32
2023-02-06T19:56:39.828Z,88.42
2023-02-06T19:59:18.233Z,88.31
2023-02-06T20:01:55.488Z,88.21
2023-02-06T20:04:26.237Z,88.34
2023-02-06T20:06:53.739Z,88.45
2023-02-06T20:09:21.341Z,88.27
2023-02-06T20:11:50.051Z,88.33
2023-02-06T20:14:18.072Z,88.26
2023-02-06T20:16:45.629Z,88.52
2023-02-06T20:19:20.589Z,88.33
2023-02-06T20:21:51.553Z,88.61
2023-02-06T20:24:22.797Z,88.29
2023-02-06T20:26:55.767Z,88.26
2023-02-06T20:29:34.562Z,87.92
2023-02-06T20:32:03.695Z,88.43
2023-02-06T20:34:31.181Z,88.42
2023-02-06T20:36:58.421Z,88.42
2023-02-06T20:39:26.508Z,88.45
2023-02-06T20:41:54.314Z,88.56
2023-02-06T20:44:21.371Z,88.44
2023-02-06T20:46:49.010Z,88.20
2023-02-06T20:49:27.411Z,88.46
2023-02-06T20:51:54.545Z,88.28
2023-02-06T20:54:22.103Z,88.22
2023-02-06T20:56:49.818Z,88.40
2023-02-06T20:59:19.605Z,88.36
2023-02-06T21:01:47.516Z,88.32
2023-02-06T21:04:16.202Z,88.11
2023-02-06T21:06:44.134Z,88.07
2023-02-06T21:09:12.309Z,88.29
2023-02-06T21:11:46.489Z,88.13
2023-02-06T21:14:15.414Z,88.00
2023-02-06T21:16:43.661Z,88.24
2023-02-06T21:19:13.528Z,88.28
2023-02-06T21:21:41.013Z,88.07
2023-02-06T21:24:08.964Z,88.30
2023-02-06T21:26:36.758Z,88.12
2023-02-06T21:29:07.566Z,88.00
2023-02-06T21:31:38.409Z,87.93
2023-02-06T21:34:12.150Z,87.90
2023-02-06T21:36:40.025Z,88.04
2023-02-06T21:39:08.005Z,87.75
2023-02-06T21:41:36.366Z,87.96
2023-02-06T21:44:03.620Z,87.84
2023-02-06T21:46:30.945Z,87.95
2023-02-06T21:48:58.488Z,87.96
2023-02-06T21:51:25.936Z,87.89
2023-02-06T21:53:52.887Z,88.04
2023-02-06T21:56:26.797Z,87.92
2023-02-06T21:58:54.034Z,87.76
2023-02-06T22:01:25.417Z,88.09
2023-02-06T22:03:53.540Z,87.94
2023-02-06T22:06:21.199Z,87.78
2023-02-06T22:08:54.154Z,87.95
2023-02-06T22:11:28.662Z,87.89
2023-02-06T22:14:05.357Z,87.85
2023-02-06T22:16:32.901Z,87.99
2023-02-06T22:19:03.047Z,88.10
2023-02-06T22:21:32.225Z,88.10
2023-02-06T22:24:05.322Z,87.88
2023-02-06T22:26:36.753Z,88.02
2023-02-06T22:29:09.873Z,87.98
2023-02-06T22:31:38.569Z,88.00
2023-02-06T22:34:05.751Z,88.05
2023-02-06T22:36:33.606Z,88.19
2023-02-06T22:39:06.990Z,87.94
2023-02-06T22:41:37.852Z,88.03
2023-02-06T22:44:05.009Z,87.85
2023-02-06T22:46:36.296Z,88.23
2023-02-06T22:49:06.320Z,88.23
2023-02-06T22:51:34.195Z,88.22
2023-02-06T22:54:01.362Z,88.04
2023-02-06T22:56:34.890Z,88.13
2023-02-06T22:59:19.364Z,87.79
2023-02-06T23:01:57.637Z,87.87
2023-02-06T23:04:34.456Z,88.08
2023-02-06T23:07:01.987Z,87.98
2023-02-06T23:09:32.820Z,88.05
2023-02-06T23:12:01.028Z,88.23
2023-02-06T23:14:30.626Z,88.31
2023-02-06T23:16:59.860Z,88.07
2023-02-06T23:19:27.950Z,88.03
2023-02-06T23:21:55.157Z,88.11
2023-02-06T23:24:22.135Z,88.26
2023-02-06T23:26:51.344Z,88.04
2023-02-06T23:29:19.956Z,88.01
2023-02-06T23:31:48.187Z,88.18
2023-02-06T23:34:17.153Z,88.22
2023-02-06T23:36:44.518Z,88.49
2023-02-06T23:39:11.950Z,88.36
2023-02-06T23:41:39.574Z,88.49
2023-02-06T23:44:08.140Z,88.55
2023-02-06T23:46:38.549Z,88.62
2023-02-06T23:49:06.538Z,88.60
2023-02-06T23:51:34.986Z,88.34
2023-02-06T23:54:02.655Z,88.36
2023-02-06T23:56:31.328Z,88.46
2023-02-06T23:59:00.911Z,88.48
